Time;durP1;ratioP1;P1;durP2;ratioP2;P2;SDS_P1;SDS_P2;PMS_P1;PMS_P2;Temp;Humidity;BMP_temperature;BMP_pressure;BME280_temperature;BME280_humidity;BME280_pressure;Samples;Min_cycle;Max_cycle;Signal;HPM_P1;HPM_P2
2023/04/10 00:02:16;;;;;;;;;;;;;;;;;;5091393;28;19920;-88
2023/04/10 00:04:42;;;;;;;;;;;;;;;;;;5091510;28;19942;-88
2023/04/10 00:07:08;;;;;;;;;;;;;;;;;;5091172;28;20151;-88
2023/04/10 00:09:34;;;;;;;;;;;;;;;;;;5091597;28;19920;-88
2023/04/10 00:12:00;;;;;;;;;;;;;;;;;;5091432;28;20025;-87
2023/04/10 00:14:26;;;;;;;;;;;;;;;;;;5091131;28;20186;-88
2023/04/10 00:16:52;;;;;;;;;;;;;;;;;;5108237;28;20103;-88
2023/04/10 00:19:18;;;;;;;;;;;;;;;;;;5091185;28;20374;-88
2023/04/10 00:21:44;;;;;;;;;;;;;;;;;;5091155;28;19920;-88
2023/04/10 00:24:10;;;;;;;;;;;;;;;;;;5108019;28;20005;-88
2023/04/10 00:26:36;;;;;;;;;;;;;;;;;;5091507;28;19920;-88
2023/04/10 00:29:02;;;;;;;;;;;;;;;;;;5090865;28;20023;-89
2023/04/10 00:31:28;;;;;;;;;;;;;;;;;;5091081;28;19963;-89
2023/04/10 00:33:54;;;;;;;;;;;;;;;;;;5091221;28;20369;-89
2023/04/10 00:36:20;;;;;;;;;;;;;;;;;;5090910;28;19959;-89
2023/04/10 00:38:46;;;;;;;;;;;;;;;;;;5090721;28;19959;-90
2023/04/10 00:41:12;;;;;;;;;;;;;;;;;;5090725;28;20393;-89
2023/04/10 00:43:38;;;;;;;;;;;;;;;;;;5090554;28;20025;-89
2023/04/10 00:46:04;;;;;;;;;;;;;;;;;;5090608;28;20014;-89
2023/04/10 00:48:30;;;;;;;;;;;;;;;;;;5090421;28;19927;-89
2023/04/10 00:50:56;;;;;;;;;;;;;;;;;;5090377;28;19920;-89
2023/04/10 00:53:22;;;;;;;;;;;;;;;;;;5090368;28;20011;-88
2023/04/10 00:55:48;;;;;;;;;;;;;;;;;;5090150;28;19920;-89
2023/04/10 00:58:14;;;;;;;;;;;;;;;;;;5090342;28;19927;-89
2023/04/10 01:00:40;;;;;;;;;;;;;;;;;;5081053;28;19920;-90
2023/04/10 01:03:06;;;;;;;;;;;;;;;;;;5094141;28;19966;-89
2023/04/10 01:05:32;;;;;;;;;;;;;;;;;;5076972;28;19920;-89
2023/04/10 01:07:58;;;;;;;;;;;;;;;;;;5076995;28;19971;-90
2023/04/10 01:10:24;;;;;;;;;;;;;;;;;;5076645;28;19928;-89
2023/04/10 01:12:50;;;;;;;;;;;;;;;;;;5076513;28;19924;-90
2023/04/10 01:15:16;;;;;;;;;;;;;;;;;;5093381;28;19927;-89
2023/04/10 01:17:41;;;;;;;;;;;;;;;;;;5076531;28;20329;-89
2023/04/10 01:20:07;;;;;;;;;;;;;;;;;;5076637;28;20299;-90
2023/04/10 01:22:34;;;;;;;;;;;;;;;;;;5076389;28;19920;-89
2023/04/10 01:25:00;;;;;;;;;;;;;;;;;;5093220;28;20487;-89
2023/04/10 01:27:26;;;;;;;;;;;;;;;;;;5076486;28;19920;-89
2023/04/10 01:29:52;;;;;;;;;;;;;;;;;;5076118;28;19924;-89
2023/04/10 01:32:18;;;;;;;;;;;;;;;;;;5076594;28;19920;-90
2023/04/10 01:34:44;;;;;;;;;;;;;;;;;;5076405;28;19927;-89
2023/04/10 01:37:10;;;;;;;;;;;;;;;;;;5093099;28;19920;-89
2023/04/10 01:39:36;;;;;;;;;;;;;;;;;;5078418;28;19927;-89
2023/04/10 01:42:02;;;;;;;;;;;;;;;;;;5076201;28;19920;-89
2023/04/10 01:44:28;;;;;;;;;;;;;;;;;;5075959;28;20400;-89
2023/04/10 01:46:54;;;;;;;;;;;;;;;;;;5076046;28;19927;-88
2023/04/10 01:49:20;;;;;;;;;;;;;;;;;;5092680;28;20378;-88
2023/04/10 01:51:46;;;;;;;;;;;;;;;;;;5075919;28;19920;-88
2023/04/10 01:54:12;;;;;;;;;;;;;;;;;;5075973;28;20342;-87
2023/04/10 01:56:38;;;;;;;;;;;;;;;;;;5092814;28;20011;-88
2023/04/10 01:59:04;;;;;;;;;;;;;;;;;;5076012;28;19967;-88
2023/04/10 02:01:30;;;;;;;;;;;;;;;;;;5075983;28;20290;-89
2023/04/10 02:03:56;;;;;;;;;;;;;;;;;;5075983;28;19927;-89
2023/04/10 02:06:22;;;;;;;;;;;;;;;;;;5092817;28;20342;-89
2023/04/10 02:08:48;;;;;;;;;;;;;;;;;;5075604;28;19932;-89
2023/04/10 02:11:17;;;;;;;;;;;;;;;;;;5075273;28;20443;-88
2023/04/10 02:13:43;;;;;;;;;;;;;;;;;;5075296;28;19924;-88
2023/04/10 02:16:09;;;;;;;;;;;;;;;;;;5075870;28;19920;-88
2023/04/10 02:18:35;;;;;;;;;;;;;;;;;;5075346;28;19920;-88
2023/04/10 02:21:01;;;;;;;;;;;;;;;;;;5075697;28;19924;-88
2023/04/10 02:23:27;;;;;;;;;;;;;;;;;;5092397;28;20007;-89
2023/04/10 02:25:55;;;;;;;;;;;;;;;;;;5092243;28;20335;-89
2023/04/10 02:28:21;;;;;;;;;;;;;;;;;;5075197;28;20019;-88
2023/04/10 02:30:47;;;;;;;;;;;;;;;;;;5075220;28;20141;-91
2023/04/10 02:33:13;;;;;;;;;;;;;;;;;;5075398;28;19948;-89
2023/04/10 02:35:39;;;;;;;;;;;;;;;;;;5075036;28;19927;-89
2023/04/10 02:38:06;;;;;;;;;;;;;;;;;;5075175;28;19920;-89
2023/04/10 02:40:32;;;;;;;;;;;;;;;;;;5074918;28;19920;-89
2023/04/10 02:42:57;;;;;;;;;;;;;;;;;;5074807;28;19920;-89
2023/04/10 02:45:24;;;;;;;;;;;;;;;;;;5074691;28;19927;-90
2023/04/10 02:47:49;;;;;;;;;;;;;;;;;;5074523;28;19924;-88
2023/04/10 02:50:16;;;;;;;;;;;;;;;;;;5075310;28;19935;-89
2023/04/10 02:52:42;;;;;;;;;;;;;;;;;;5074890;28;20120;-89
2023/04/10 02:55:08;;;;;;;;;;;;;;;;;;5074897;28;20015;-89
2023/04/10 02:57:35;;;;;;;;;;;;;;;;;;5074815;28;19920;-89
2023/04/10 03:00:01;;;;;;;;;;;;;;;;;;5091382;28;20382;-89
2023/04/10 03:02:27;;;;;;;;;;;;;;;;;;5074578;28;20053;-89
2023/04/10 03:04:53;;;;;;;;;;;;;;;;;;5074524;28;19931;-89
2023/04/10 03:07:19;;;;;;;;;;;;;;;;;;5074834;28;20003;-91
2023/04/10 03:09:45;;;;;;;;;;;;;;;;;;5074852;28;20359;-90
2023/04/10 03:12:11;;;;;;;;;;;;;;;;;;5091386;28;19924;-89
2023/04/10 03:14:37;;;;;;;;;;;;;;;;;;5074363;28;19969;-89
2023/04/10 03:17:03;;;;;;;;;;;;;;;;;;5074266;28;19977;-89
2023/04/10 03:19:29;;;;;;;;;;;;;;;;;;5074539;28;19935;-89
2023/04/10 03:21:55;;;;;;;;;;;;;;;;;;5074363;28;19922;-89
2023/04/10 03:24:21;;;;;;;;;;;;;;;;;;5073915;28;19943;-88
2023/04/10 03:26:47;;;;;;;;;;;;;;;;;;5074332;28;19924;-89
2023/04/10 03:29:17;;;;;;;;;;;;;;;;;;5074134;28;19989;-89
2023/04/10 03:31:43;;;;;;;;;;;;;;;;;;5074480;28;19954;-89
2023/04/10 03:34:09;;;;;;;;;;;;;;;;;;5074203;28;19920;-89
2023/04/10 03:36:35;;;;;;;;;;;;;;;;;;5074165;28;19982;-89
2023/04/10 03:39:01;;;;;;;;;;;;;;;;;;5074122;28;19920;-89
2023/04/10 03:41:27;;;;;;;;;;;;;;;;;;5073961;28;19920;-90
2023/04/10 03:43:53;;;;;;;;;;;;;;;;;;5074221;28;19927;-89
2023/04/10 03:46:19;;;;;;;;;;;;;;;;;;5073881;28;19927;-88
2023/04/10 03:48:45;;;;;;;;;;;;;;;;;;5073848;28;20010;-89
2023/04/10 03:51:11;;;;;;;;;;;;;;;;;;5073854;28;20363;-90
2023/04/10 03:53:37;;;;;;;;;;;;;;;;;;5073871;28;19920;-89
2023/04/10 03:56:03;;;;;;;;;;;;;;;;;;5073771;28;19924;-89
2023/04/10 03:58:29;;;;;;;;;;;;;;;;;;5090854;28;19924;-90
2023/04/10 04:00:55;;;;;;;;;;;;;;;;;;5073682;28;19965;-90
2023/04/10 04:03:20;;;;;;;;;;;;;;;;;;5073796;28;20355;-89
2023/04/10 04:05:46;;;;;;;;;;;;;;;;;;5074069;28;20057;-89
2023/04/10 04:08:12;;;;;;;;;;;;;;;;;;5090822;28;19928;-89
2023/04/10 04:10:38;;;;;;;;;;;;;;;;;;5073904;28;19943;-89
2023/04/10 04:13:04;;;;;;;;;;;;;;;;;;5073752;28;20077;-89
2023/04/10 04:15:30;;;;;;;;;;;;;;;;;;5073990;28;20376;-90
2023/04/10 04:17:56;;;;;;;;;;;;;;;;;;5090995;28;19974;-89
2023/04/10 04:20:22;;;;;;;;;;;;;;;;;;5090591;28;19924;-89
2023/04/10 04:22:48;;;;;;;;;;;;;;;;;;5073658;28;19920;-89
2023/04/10 04:25:14;;;;;;;;;;;;;;;;;;5073593;28;19927;-89
2023/04/10 04:27:40;;;;;;;;;;;;;;;;;;5073984;28;20391;-89
2023/04/10 04:30:06;;;;;;;;;;;;;;;;;;5090455;28;19935;-88
2023/04/10 04:32:32;;;;;;;;;;;;;;;;;;5073670;28;19920;-89
2023/04/10 04:34:58;;;;;;;;;;;;;;;;;;5074173;28;19926;-89
2023/04/10 04:37:24;;;;;;;;;;;;;;;;;;5077101;28;20023;-89
2023/04/10 04:39:50;;;;;;;;;;;;;;;;;;5094311;28;19924;-89
2023/04/10 04:42:16;;;;;;;;;;;;;;;;;;5077204;28;19967;-89
2023/04/10 04:44:42;;;;;;;;;;;;;;;;;;5077446;28;20002;-89
2023/04/10 04:47:08;;;;;;;;;;;;;;;;;;5094251;28;20413;-89
2023/04/10 04:49:34;;;;;;;;;;;;;;;;;;5076933;28;20015;-90
2023/04/10 04:52:00;;;;;;;;;;;;;;;;;;5077346;28;19978;-89
2023/04/10 04:54:26;;;;;;;;;;;;;;;;;;5077315;28;19920;-89
2023/04/10 04:56:52;;;;;;;;;;;;;;;;;;5076702;28;19920;-88
2023/04/10 04:59:18;;;;;;;;;;;;;;;;;;5077327;28;19970;-89
2023/04/10 05:01:44;;;;;;;;;;;;;;;;;;5093667;28;19974;-90
2023/04/10 05:04:10;;;;;;;;;;;;;;;;;;5076811;28;19943;-89
2023/04/10 05:06:41;;;;;;;;;;;;;;;;;;5076687;28;19920;-92
2023/04/10 05:09:07;;;;;;;;;;;;;;;;;;5077389;28;19924;-89
2023/04/10 05:11:33;;;;;;;;;;;;;;;;;;5076442;28;19924;-88
2023/04/10 05:13:59;;;;;;;;;;;;;;;;;;5093605;28;19926;-88
2023/04/10 05:16:26;;;;;;;;;;;;;;;;;;5076546;28;20308;-88
2023/04/10 05:18:55;;;;;;;;;;;;;;;;;;5076959;28;19927;-89
2023/04/10 05:21:23;;;;;;;;;;;;;;;;;;5076641;28;19920;-91
2023/04/10 05:23:49;;;;;;;;;;;;;;;;;;5076681;28;19924;-90
2023/04/10 05:26:15;;;;;;;;;;;;;;;;;;5093338;28;19920;-90
2023/04/10 05:28:41;;;;;;;;;;;;;;;;;;5076513;28;19931;-89
2023/04/10 05:31:07;;;;;;;;;;;;;;;;;;5076684;28;19927;-89
2023/04/10 05:33:33;;;;;;;;;;;;;;;;;;5076759;28;19924;-90
2023/04/10 05:35:59;;;;;;;;;;;;;;;;;;5076572;28;20343;-89
2023/04/10 05:38:25;;;;;;;;;;;;;;;;;;5076352;28;19920;-92
2023/04/10 05:40:51;;;;;;;;;;;;;;;;;;5074999;28;19926;-90
2023/04/10 05:43:17;;;;;;;;;;;;;;;;;;5092659;28;20395;-89
2023/04/10 05:45:44;;;;;;;;;;;;;;;;;;5075044;28;19953;-91
2023/04/10 05:48:10;;;;;;;;;;;;;;;;;;5075607;28;19991;-91
2023/04/10 05:50:36;;;;;;;;;;;;;;;;;;5076025;28;20357;-91
2023/04/10 05:53:02;;;;;;;;;;;;;;;;;;5075904;28;19985;-91
2023/04/10 05:55:27;;;;;;;;;;;;;;;;;;5075769;28;20024;-92
2023/04/10 05:57:54;;;;;;;;;;;;;;;;;;5076713;28;20355;-91
2023/04/10 06:00:20;;;;;;;;;;;;;;;;;;5076005;28;19920;-91
2023/04/10 06:02:45;;;;;;;;;;;;;;;;;;5092738;28;20263;-91
2023/04/10 06:05:11;;;;;;;;;;;;;;;;;;5076065;28;19920;-92
2023/04/10 06:07:40;;;;;;;;;;;;;;;;;;5075702;28;19994;-91
2023/04/10 06:10:06;;;;;;;;;;;;;;;;;;5075626;28;19931;-91
2023/04/10 06:12:32;;;;;;;;;;;;;;;;;;5075966;28;19920;-91
2023/04/10 06:14:58;;;;;;;;;;;;;;;;;;5075848;28;20366;-90
2023/04/10 06:17:24;;;;;;;;;;;;;;;;;;5075751;28;20327;-91
2023/04/10 06:19:50;;;;;;;;;;;;;;;;;;5075793;28;20387;-91
2023/04/10 06:22:16;;;;;;;;;;;;;;;;;;5075402;28;19969;-91
2023/04/10 06:24:42;;;;;;;;;;;;;;;;;;5075547;28;19928;-89
2023/04/10 06:27:11;;;;;;;;;;;;;;;;;;5075198;28;19920;-90
2023/04/10 06:29:37;;;;;;;;;;;;;;;;;;5075486;28;19928;-90
2023/04/10 06:32:03;;;;;;;;;;;;;;;;;;5075535;28;19965;-89
2023/04/10 06:34:29;;;;;;;;;;;;;;;;;;5075469;28;19934;-90
2023/04/10 06:36:55;;;;;;;;;;;;;;;;;;5075333;28;19920;-90
2023/04/10 06:39:20;;;;;;;;;;;;;;;;;;5075117;28;19920;-90
2023/04/10 06:41:46;;;;;;;;;;;;;;;;;;5075847;28;19920;-88
2023/04/10 06:44:12;;;;;;;;;;;;;;;;;;5094112;28;20408;-90
2023/04/10 06:46:38;;;;;;;;;;;;;;;;;;5078163;28;20015;-89
2023/04/10 06:49:05;;;;;;;;;;;;;;;;;;5075637;28;19932;-90
2023/04/10 06:51:31;;;;;;;;;;;;;;;;;;5075187;28;19935;-89
2023/04/10 06:53:57;;;;;;;;;;;;;;;;;;5075310;28;20297;-89
2023/04/10 06:56:23;;;;;;;;;;;;;;;;;;5075278;28;19924;-90
2023/04/10 06:58:49;;;;;;;;;;;;;;;;;;5074407;28;19931;-91
2023/04/10 07:01:16;;;;;;;;;;;;;;;;;;5074981;28;20015;-91
2023/04/10 07:03:42;;;;;;;;;;;;;;;;;;5074841;28;20117;-89
2023/04/10 07:06:08;;;;;;;;;;;;;;;;;;5075153;28;20441;-91
2023/04/10 07:08:34;;;;;;;;;;;;;;;;;;5075193;28;20363;-89
2023/04/10 07:11:03;;;;;;;;;;;;;;;;;;5075938;28;20067;-86
2023/04/10 07:13:29;;;;;;;;;;;;;;;;;;5075068;28;20105;-89
2023/04/10 07:15:56;;;;;;;;;;;;;;;;;;5076896;28;19920;-93
2023/04/10 07:18:22;;;;;;;;;;;;;;;;;;5076378;28;19928;-88
2023/04/10 07:20:48;;;;;;;;;;;;;;;;;;5090941;28;20084;-89
2023/04/10 07:23:19;;;;;;;;;;;;;;;;;;5074911;28;20261;-89
2023/04/10 07:25:45;;;;;;;;;;;;;;;;;;5074784;28;19920;-90
2023/04/10 07:28:11;;;;;;;;;;;;;;;;;;5074618;28;19973;-89
2023/04/10 07:30:37;;;;;;;;;;;;;;;;;;5074210;28;20371;-89
2023/04/10 07:33:03;;;;;;;;;;;;;;;;;;5074118;28;19924;-88
2023/04/10 07:35:29;;;;;;;;;;;;;;;;;;5073967;28;19920;-89
2023/04/10 07:37:55;;;;;;;;;;;;;;;;;;5074093;28;19920;-89
2023/04/10 07:40:20;;;;;;;;;;;;;;;;;;5073926;28;19924;-89
2023/04/10 07:42:46;;;;;;;;;;;;;;;;;;5091001;28;20014;-90
2023/04/10 07:45:12;;;;;;;;;;;;;;;;;;5073699;28;20466;-88
2023/04/10 07:47:38;;;;;;;;;;;;;;;;;;5073768;28;19920;-89
2023/04/10 07:50:04;;;;;;;;;;;;;;;;;;5073826;28;20379;-89
2023/04/10 07:52:30;;;;;;;;;;;;;;;;;;5073932;28;20011;-90
2023/04/10 07:54:56;;;;;;;;;;;;;;;;;;5073967;28;20021;-89
2023/04/10 07:57:23;;;;;;;;;;;;;;;;;;5090981;28;19920;-90
2023/04/10 07:59:49;;;;;;;;;;;;;;;;;;5074294;28;20270;-90
2023/04/10 08:02:15;;;;;;;;;;;;;;;;;;5073800;28;20019;-90
2023/04/10 08:04:41;;;;;;;;;;;;;;;;;;5073588;28;20363;-89
2023/04/10 08:07:07;;;;;;;;;;;;;;;;;;5073785;28;19920;-89
2023/04/10 08:09:33;;;;;;;;;;;;;;;;;;5073483;28;19985;-88
2023/04/10 08:11:59;;;;;;;;;;;;;;;;;;5077220;28;19982;-90
2023/04/10 08:14:25;;;;;;;;;;;;;;;;;;5077731;28;19920;-89
2023/04/10 08:16:51;;;;;;;;;;;;;;;;;;5077435;28;19920;-90
2023/04/10 08:19:17;;;;;;;;;;;;;;;;;;5094631;28;19928;-91
2023/04/10 08:21:43;;;;;;;;;;;;;;;;;;5077623;28;19946;-92
2023/04/10 08:24:09;;;;;;;;;;;;;;;;;;5078303;28;19920;-89
2023/04/10 08:26:35;;;;;;;;;;;;;;;;;;5077841;28;20299;-88
2023/04/10 08:29:01;;;;;;;;;;;;;;;;;;5077761;28;20371;-91
2023/04/10 08:31:59;;;;;;;;;;;;;;;;;;5095843;28;19924;-93
2023/04/10 08:34:25;;;;;;;;;;;;;;;;;;5078158;28;19927;-92
2023/04/10 08:36:54;;;;;;;;;;;;;;;;;;5096055;28;19982;-92
2023/04/10 08:39:20;;;;;;;;;;;;;;;;;;5094616;28;19920;-93
2023/04/10 08:41:46;;;;;;;;;;;;;;;;;;5075768;28;19920;-91
2023/04/10 08:44:12;;;;;;;;;;;;;;;;;;5075081;28;20006;-95
2023/04/10 08:46:38;;;;;;;;;;;;;;;;;;5078626;28;19974;-94
2023/04/10 08:49:04;;;;;;;;;;;;;;;;;;5078281;28;19924;-94
2023/04/10 08:51:31;;;;;;;;;;;;;;;;;;5077906;28;19975;-90
2023/04/10 08:53:57;;;;;;;;;;;;;;;;;;5089673;28;19969;-91
2023/04/10 08:56:22;;;;;;;;;;;;;;;;;;5075266;28;19924;-91
2023/04/10 08:58:51;;;;;;;;;;;;;;;;;;5091681;28;20291;-95
2023/04/10 09:01:17;;;;;;;;;;;;;;;;;;5080726;28;19924;-94
2023/04/10 09:03:43;;;;;;;;;;;;;;;;;;5077820;28;20282;-91
2023/04/10 09:06:09;;;;;;;;;;;;;;;;;;5073268;28;21463;-92
2023/04/10 09:08:41;;;;;;;;;;;;;;;;;;5094185;28;20039;-95
2023/04/10 09:11:12;;;;;;;;;;;;;;;;;;5076953;28;19963;-94
2023/04/10 09:13:40;;;;;;;;;;;;;;;;;;5076651;28;19920;-92
2023/04/10 09:16:06;;;;;;;;;;;;;;;;;;5077026;28;19919;-94
2023/04/10 09:18:32;;;;;;;;;;;;;;;;;;5077505;28;20388;-96
2023/04/10 09:20:59;;;;;;;;;;;;;;;;;;5091761;28;19927;-94
2023/04/10 09:23:25;;;;;;;;;;;;;;;;;;5077411;28;19920;-94
2023/04/10 09:25:51;;;;;;;;;;;;;;;;;;5076323;28;19981;-94
2023/04/10 09:28:17;;;;;;;;;;;;;;;;;;5076118;28;19975;-96
2023/04/10 09:48:46;;;;;;;;;;;;;;;;;;4998368;22;19929;-94
2023/04/10 09:51:25;;;;;;;;;;;;;;;;;;4990419;28;19929;-94
2023/04/10 09:53:53;;;;;;;;;;;;;;;;;;4999389;28;19999;-93
2023/04/10 09:59:16;;;;;;;;;;;;;;;;;;4993906;28;19921;-93
2023/04/10 10:01:43;;;;;;;;;;;;;;;;;;4959367;28;19933;-94
2023/04/10 10:04:14;;;;;;;;;;;;;;;;;;4989557;28;20008;-95
2023/04/10 10:06:49;;;;;;;;;;;;;;;;;;4978184;28;19921;-93
2023/04/10 10:09:18;;;;;;;;;;;;;;;;;;4978356;28;20392;-94
2023/04/10 10:11:44;;;;;;;;;;;;;;;;;;4977824;28;19922;-93
2023/04/10 10:14:28;;;;;;;;;;;;;;;;;;4973331;28;19921;-96
2023/04/10 10:16:54;;;;;;;;;;;;;;;;;;4975002;28;20805;-89
2023/04/10 10:19:20;;;;;;;;;;;;;;;;;;4977036;28;20016;-93
2023/04/10 10:21:50;;;;;;;;;;;;;;;;;;4991487;28;19926;-93
2023/04/10 10:24:16;;;;;;;;;;;;;;;;;;4974514;28;20009;-93
2023/04/10 10:26:42;;;;;;;;;;;;;;;;;;4977509;28;20329;-91
2023/04/10 10:29:12;;;;;;;;;;;;;;;;;;4993004;28;19933;-91
2023/04/10 10:31:38;;;;;;;;;;;;;;;;;;4976883;28;20008;-91
2023/04/10 10:34:06;;;;;;;;;;;;;;;;;;4976173;28;20369;-91
2023/04/10 10:36:32;;;;;;;;;;;;;;;;;;4976779;28;20322;-91
2023/04/10 10:38:58;;;;;;;;;;;;;;;;;;4993195;28;19922;-92
2023/04/10 10:41:27;;;;;;;;;;;;;;;;;;4980245;28;19922;-90
2023/04/10 10:43:53;;;;;;;;;;;;;;;;;;4976651;28;20262;-93
2023/04/10 10:46:19;;;;;;;;;;;;;;;;;;4976601;28;19921;-92
2023/04/10 10:48:45;;;;;;;;;;;;;;;;;;4976550;28;19932;-91
2023/04/10 10:51:11;;;;;;;;;;;;;;;;;;4976876;28;19922;-92
2023/04/10 10:53:40;;;;;;;;;;;;;;;;;;4992223;28;19929;-93
2023/04/10 10:56:09;;;;;;;;;;;;;;;;;;4977365;28;20348;-92
2023/04/10 10:58:38;;;;;;;;;;;;;;;;;;4992777;28;19985;-93
2023/04/10 11:01:08;;;;;;;;;;;;;;;;;;4993162;28;20036;-93
2023/04/10 11:03:37;;;;;;;;;;;;;;;;;;4992478;28;19921;-95
2023/04/10 11:06:05;;;;;;;;;;;;;;;;;;4977046;28;19983;-93
2023/04/10 11:08:35;;;;;;;;;;;;;;;;;;4976811;28;19925;-92
2023/04/10 11:11:07;;;;;;;;;;;;;;;;;;4993533;28;19975;-93
2023/04/10 11:13:36;;;;;;;;;;;;;;;;;;4993332;28;19983;-96
2023/04/10 11:16:02;;;;;;;;;;;;;;;;;;4976693;28;20017;-93
2023/04/10 11:18:29;;;;;;;;;;;;;;;;;;4976597;28;19929;-95
2023/04/10 11:20:58;;;;;;;;;;;;;;;;;;4992514;28;19976;-96
2023/04/10 11:23:25;;;;;;;;;;;;;;;;;;4968342;28;20012;-95
2023/04/10 11:25:51;;;;;;;;;;;;;;;;;;4976362;28;20292;-95
2023/04/10 11:28:17;;;;;;;;;;;;;;;;;;4976374;28;22369;-93
2023/04/10 11:30:53;;;;;;;;;;;;;;;;;;;;;
2023/04/10 11:36:11;;;;;;;;;;;;;;;;;;4985189;28;20004;-96
2023/04/10 11:38:37;;;;;;;;;;;;;;;;;;4976972;28;19922;-95
2023/04/10 11:41:06;;;;;;;;;;;;;;;;;;4977049;28;19922;-95
2023/04/10 11:43:32;;;;;;;;;;;;;;;;;;4976964;28;19951;-95
2023/04/10 11:45:59;;;;;;;;;;;;;;;;;;4992569;28;19975;-94
2023/04/10 11:48:25;;;;;;;;;;;;;;;;;;4975999;28;19988;-95
2023/04/10 11:50:54;;;;;;;;;;;;;;;;;;4977143;28;19930;-91
2023/04/10 11:53:21;;;;;;;;;;;;;;;;;;4969583;28;19922;-94
2023/04/10 11:55:56;;;;;;;;;;;;;;;;;;4973761;28;20297;-95
2023/04/10 11:58:22;;;;;;;;;;;;;;;;;;5327070;23;19936;-95
2023/04/10 12:00:55;;;;;;;;;;;;;;;;;;4992583;28;19925;-95
2023/04/10 12:03:21;;;;;;;;;;;;;;;;;;4976631;28;19922;-95
2023/04/10 12:05:47;;;;;;;;;;;;;;;;;;4970967;28;19945;-93
2023/04/10 12:08:13;;;;;;;;;;;;;;;;;;4956695;28;20303;-94
2023/04/10 12:10:40;;;;;;;;;;;;;;;;;;4956555;28;19976;-92
2023/04/10 12:13:06;;;;;;;;;;;;;;;;;;4956297;28;20380;-92
2023/04/10 12:15:32;;;;;;;;;;;;;;;;;;4956592;28;19922;-93
2023/04/10 12:17:58;;;;;;;;;;;;;;;;;;4956651;28;20330;-93
2023/04/10 12:20:28;;;;;;;;;;;;;;;;;;4956360;28;20005;-92
2023/04/10 12:22:55;;;;;;;;;;;;;;;;;;4956520;28;19922;-92
2023/04/10 12:25:24;;;;;;;;;;;;;;;;;;4956358;28;19923;-93
2023/04/10 12:27:50;;;;;;;;;;;;;;;;;;4956149;28;19933;-93
2023/04/10 12:30:19;;;;;;;;;;;;;;;;;;4956116;28;19922;-94
2023/04/10 12:32:45;;;;;;;;;;;;;;;;;;4956397;28;19973;-94
2023/04/10 12:35:13;;;;;;;;;;;;;;;;;;4956158;28;19922;-95
2023/04/10 12:37:39;;;;;;;;;;;;;;;;;;4956071;28;19922;-94
2023/04/10 12:40:05;;;;;;;;;;;;;;;;;;4955814;28;19922;-93
2023/04/10 12:45:29;;;;;;;;;;;;;;;;;;4971936;28;19977;-94
2023/04/10 12:47:56;;;;;;;;;;;;;;;;;;4939409;28;20025;-93
2023/04/10 12:50:22;;;;;;;;;;;;;;;;;;4939140;28;19922;-93
2023/04/10 12:52:48;;;;;;;;;;;;;;;;;;4938986;28;19926;-94
2023/04/10 12:55:14;;;;;;;;;;;;;;;;;;4938893;28;19936;-91
2023/04/10 12:57:40;;;;;;;;;;;;;;;;;;4942017;28;19957;-91
2023/04/10 13:00:08;;;;;;;;;;;;;;;;;;4941653;28;19930;-91
2023/04/10 13:02:35;;;;;;;;;;;;;;;;;;4957590;28;19926;-90
2023/04/10 13:05:02;;;;;;;;;;;;;;;;;;4941744;28;20008;-91
2023/04/10 13:07:28;;;;;;;;;;;;;;;;;;4941528;28;19929;-90
2023/04/10 13:09:54;;;;;;;;;;;;;;;;;;4941882;28;19922;-90
2023/04/10 13:12:21;;;;;;;;;;;;;;;;;;4941995;28;20021;-90
2023/04/10 13:14:49;;;;;;;;;;;;;;;;;;4957475;28;20000;-94
2023/04/10 13:17:15;;;;;;;;;;;;;;;;;;4942498;28;19921;-93
2023/04/10 13:19:46;;;;;;;;;;;;;;;;;;4942303;28;19945;-93
2023/04/10 13:22:12;;;;;;;;;;;;;;;;;;4959372;28;20352;-93
2023/04/10 13:24:38;;;;;;;;;;;;;;;;;;4973464;28;19922;-92
2023/04/10 13:27:10;;;;;;;;;;;;;;;;;;4957331;28;19922;-94
2023/04/10 13:29:39;;;;;;;;;;;;;;;;;;4958627;28;20344;-95
2023/04/10 13:32:05;;;;;;;;;;;;;;;;;;4958870;28;20348;-96
2023/04/10 13:34:31;;;;;;;;;;;;;;;;;;4958058;28;20381;-93
2023/04/10 13:36:57;;;;;;;;;;;;;;;;;;4959457;28;19966;-96
2023/04/10 13:39:26;;;;;;;;;;;;;;;;;;4960711;28;19933;-96
2023/04/10 13:41:52;;;;;;;;;;;;;;;;;;4959148;28;19945;-96
2023/04/10 13:44:18;;;;;;;;;;;;;;;;;;4960927;28;20409;-96
2023/04/10 13:46:47;;;;;;;;;;;;;;;;;;4962836;28;19953;-96
2023/04/10 13:49:29;;;;;;;;;;;;;;;;;;4963134;28;19976;-96
2023/04/10 13:52:04;;;;;;;;;;;;;;;;;;4960782;28;20374;-94
2023/04/10 13:54:30;;;;;;;;;;;;;;;;;;4957898;28;20057;-95
2023/04/10 15:28:31;;;;;;;;;;;;;;;;;;4952078;29;19930;-93
2023/04/10 15:30:57;;;;;;;;;;;;;;;;;;4938374;29;20021;-91
2023/04/10 16:34:02;;;;;;;;;;;;;;;;;;5805742;23;19926;-96
2023/04/10 16:39:04;;;;;;;;;;;;;;;;;;5688074;23;19969;-93
2023/04/10 16:55:08;;;;;;;;;;;;;;;;;;4944479;28;19926;-95
2023/04/10 16:57:34;;;;;;;;;;;;;;;;;;4946537;28;19910;-92
2023/04/10 17:00:00;;;;;;;;;;;;;;;;;;4939469;29;19952;-94
2023/04/10 17:02:29;;;;;;;;;;;;;;;;;;4940977;29;19973;-96
2023/04/10 17:04:55;;;;;;;;;;;;;;;;;;4941378;29;19929;-93
2023/04/10 17:07:21;;;;;;;;;;;;;;;;;;4940586;29;20372;-93
2023/04/10 17:09:47;;;;;;;;;;;;;;;;;;4940564;29;19922;-93
2023/04/10 17:36:23;;;;;;;;;;;;;;;;;;1470330;23;21487;-90
2023/04/10 17:38:55;;;;;;;;;;;;;;;;;;4976758;28;19936;-94
2023/04/10 17:41:21;;;;;;;;;;;;;;;;;;4978277;28;19941;-92
2023/04/10 17:43:47;;;;;;;;;;;;;;;;;;4978653;28;20020;-92
2023/04/10 17:46:16;;;;;;;;;;;;;;;;;;4979467;28;19921;-94
2023/04/10 17:48:42;;;;;;;;;;;;;;;;;;4982712;28;19953;-94
2023/04/10 17:51:08;;;;;;;;;;;;;;;;;;4978855;28;19930;-95
2023/04/10 17:53:34;;;;;;;;;;;;;;;;;;4977808;28;19921;-93
2023/04/10 17:56:00;;;;;;;;;;;;;;;;;;4977836;28;19993;-94
2023/04/10 17:58:26;;;;;;;;;;;;;;;;;;4978676;28;20149;-96
2023/04/10 18:00:52;;;;;;;;;;;;;;;;;;4978190;28;19922;-93
2023/04/10 18:03:18;;;;;;;;;;;;;;;;;;4977781;28;19968;-92
2023/04/10 18:16:13;;;;;;;;;;;;;;;;;;5550866;23;19935;-95
2023/04/10 18:18:42;;;;;;;;;;;;;;;;;;4977890;28;19964;-96
2023/04/10 18:21:26;;;;;;;;;;;;;;;;;;4994836;28;19932;-96
2023/04/10 18:23:54;;;;;;;;;;;;;;;;;;4981767;28;20016;-93
2023/04/10 18:26:20;;;;;;;;;;;;;;;;;;4977648;28;19933;-93
2023/04/10 18:29:08;;;;;;;;;;;;;;;;;;4978126;28;20002;-96
2023/04/10 18:31:34;;;;;;;;;;;;;;;;;;4994440;28;19964;-94
2023/04/10 18:34:00;;;;;;;;;;;;;;;;;;4977941;28;19922;-95
2023/04/10 18:36:26;;;;;;;;;;;;;;;;;;4980368;28;20386;-96
2023/04/10 18:38:58;;;;;;;;;;;;;;;;;;4982504;28;20387;-95
2023/04/10 18:41:24;;;;;;;;;;;;;;;;;;4976977;28;19922;-94
2023/04/10 18:43:58;;;;;;;;;;;;;;;;;;4978207;28;19921;-94
2023/04/10 18:46:26;;;;;;;;;;;;;;;;;;4980673;28;20389;-95
2023/04/10 18:48:55;;;;;;;;;;;;;;;;;;4978688;28;19996;-95
2023/04/10 18:51:21;;;;;;;;;;;;;;;;;;4977328;28;19921;-92
2023/04/10 18:53:48;;;;;;;;;;;;;;;;;;4976748;28;19922;-94
2023/04/10 18:56:14;;;;;;;;;;;;;;;;;;4992954;28;19922;-93
2023/04/10 18:58:40;;;;;;;;;;;;;;;;;;4977091;28;19957;-96
2023/04/10 19:01:06;;;;;;;;;;;;;;;;;;4979681;28;19926;-96
2023/04/10 19:03:32;;;;;;;;;;;;;;;;;;4979538;28;19921;-95
2023/04/10 19:05:58;;;;;;;;;;;;;;;;;;4977471;28;19928;-95
2023/04/10 19:11:00;;;;;;;;;;;;;;;;;;5011753;23;19925;-96
2023/04/10 19:13:36;;;;;;;;;;;;;;;;;;;;;
2023/04/10 19:21:57;;;;;;;;;;;;;;;;;;4986999;28;19972;-96
2023/04/10 19:24:23;;;;;;;;;;;;;;;;;;4964219;28;19924;-96
2023/04/10 19:27:10;;;;;;;;;;;;;;;;;;4922220;28;19922;-96
2023/04/10 19:30:02;;;;;;;;;;;;;;;;;;4940403;29;19926;-96
2023/04/10 19:32:38;;;;;;;;;;;;;;;;;;4961997;29;19911;-96
2023/04/10 19:35:04;;;;;;;;;;;;;;;;;;4938085;29;19927;-96
2023/04/10 19:40:30;;;;;;;;;;;;;;;;;;4957280;29;20156;-96
2023/04/10 19:45:32;;;;;;;;;;;;;;;;;;5878704;23;20009;-96
2023/04/10 19:47:58;;;;;;;;;;;;;;;;;;4977954;28;19922;-96
2023/04/10 19:50:24;;;;;;;;;;;;;;;;;;4976465;28;19933;-93
2023/04/10 19:52:50;;;;;;;;;;;;;;;;;;4978912;28;19926;-95
2023/04/10 19:55:16;;;;;;;;;;;;;;;;;;4977415;28;19960;-94
2023/04/10 19:57:42;;;;;;;;;;;;;;;;;;4975904;28;19999;-95
2023/04/10 20:00:08;;;;;;;;;;;;;;;;;;4975757;28;20089;-92
2023/04/10 20:02:36;;;;;;;;;;;;;;;;;;4977648;28;20288;-95
2023/04/10 20:05:02;;;;;;;;;;;;;;;;;;4976862;28;19929;-93
2023/04/10 20:07:30;;;;;;;;;;;;;;;;;;4979122;28;20309;-93
2023/04/10 20:10:01;;;;;;;;;;;;;;;;;;4980476;28;19926;-93
2023/04/10 20:12:27;;;;;;;;;;;;;;;;;;4979648;28;20354;-94
2023/04/10 20:14:53;;;;;;;;;;;;;;;;;;4996281;28;20260;-92
2023/04/10 20:17:19;;;;;;;;;;;;;;;;;;4980199;28;20041;-93
2023/04/10 20:19:45;;;;;;;;;;;;;;;;;;4979739;28;19922;-95
2023/04/10 20:22:17;;;;;;;;;;;;;;;;;;4990315;28;19940;-96
